Grand Teton National Park, WY

2:14 AM MST on December 26, 2014 (GMT -0700)
Driggs | Change Station
CLOSE
Current Station
Airport
Location: Driggs,
Elevation: 6227 ft
Nearby Weather Stations

Elev 6227 ft 43.74 °N, 111.10 °W | Updated 18 minutes ago

Mostly Cloudy
Mostly Cloudy
3 °F
Feels Like 3 °F
N
0
Wind Variable Wind from North

Today
High -- | Low -- °F
--% Chance of Precip.
Yesterday
High -- | Low -- °F
Precip. -- in
7:54 AM 4:49 PM
Waxing Crescent, 24% visible
Pressure 29.96 in
Visibility 10.0 miles
Clouds Scattered Clouds 3700 ft
Dew Point 0 °F
Humidity 88%
Rainfall 0.00 in
Snow Depth Not available.
UV 0 out of 12
Pollen .10 out of 12
Air Quality Not available.
Flu Activity Not available.
METAR KDIJ 260856Z AUTO 00000KT 10SM SCT037 M16/M18 A2983 RMK AO2 51003 T11611177 SLP145

More Conditions Fewer Conditions

Pressure 29.96 in
Visibility 10.0 miles
Clouds Scattered Clouds 3700 ft
Dew Point 0 °F
Humidity 88%
Rainfall 0.00 in
Snow Depth Not available.
UV 0 out of 12
Pollen .10 out of 12
Air Quality Not available.
Flu Activity Not available.
METAR KDIJ 260856Z AUTO 00000KT 10SM SCT037 M16/M18 A2983 RMK AO2 51003 T11611177 SLP145

More Conditions Fewer Conditions

10-Day Weather Forecast

Almanac

Astronomy

Dec. 26, 2014 Rise Set
Actual Time
Civil Twilight
Nautical Twilight
Astronomical Twilight
Moon
Length of Visible Light
Length of Day
Tomorrow will be .
, % of the Moon is Illuminated

Today's Extremes

State Highs State Lows

Community

WunderPhotos

Upload Photos

1,780,568 photos uploaded!

WunderBlogs® & News

Nearby

Air Quality

  Air Quality AQ Index Pollutant
Not available.

Snow Depth

Station Depth Elevation

Earthquake Activity

City Distance Mag. Time & Date
Minimum magnitude displayed is 2.5.

Coastal Water Temperatures

Place Temperature

Nearby Weather Stations